Kralendijk, Netherlands Antilles
Current Conditions -  °F | °C
As of 1:00 PM on Tuesday 21 Oct 2014 (Local Time) from TNCC Reporting Station
Scattered Clouds Scattered Clouds  
Wind Chill: 32°   Ceiling: Unl
Heat Index: 41°   Visibility: 6mi
Dew Point: 26°   Wind: 12mph
Humidity: 70%   Direction: 100°E
Pressure: 29.85"   Gusts: NA
Location:  12.15°N, 68.28°W
Report Text: TNCC 211700Z 10010KT 9999 SCT022 32/26 Q1011 NOSIG
Loading
Personal Weather Stations






























Interactive Weather Map
Tropical Storm Tracking
New forecast layout! Learn more

10-Day Weather Forecast

Advertisements
Track Severe Weather on mobile